This is the latest recevied weather packets stored in our database for station/object LA5NNA. If no packets are shown the sender has not sent any weather packets the latest 10 day(s).
| Time | Temp. | Humidity | Pressure | Rain* | Wind** | Luminosity | Snow |
|---|---|---|---|---|---|---|---|
| 1777336808 | 6.11° C | 65% | 1028.2 hPa | 0 mm | - | 0 W/m² | - |
| 1777333808 | 6.11° C | 64% | 1027.7 hPa | 0 mm | - | 0 W/m² | - |
| 1777332307 | 6.67° C | 63% | 1027.6 hPa | 0 mm | - | 0 W/m² | - |
| 1777329908 | 6.67° C | 63% | 1027.3 hPa | 0 mm | - | 0 W/m² | - |
| 1777329608 | 6.67° C | 63% | 1027.4 hPa | 0 mm | - | 0 W/m² | - |
| 1777329012 | 6.67° C | 63% | 1027.3 hPa | 0 mm | - | 0 W/m² | - |
| 1777328708 | 6.67° C | 63% | 1027.2 hPa | 0 mm | - | 0 W/m² | - |
| 1777328107 | 6.67° C | 63% | 1027.3 hPa | 0 mm | - | 0 W/m² | - |
| 1777327808 | 6.67° C | 63% | 1027.4 hPa | 0 mm | - | 0 W/m² | - |
| 1777323907 | 6.67° C | 64% | 1027.2 hPa | 0 mm | - | 0 W/m² | - |
| 1777323308 | 6.67° C | 64% | 1027.3 hPa | 0 mm | - | 0 W/m² | - |
| 1777323007 | 6.67° C | 64% | 1027 hPa | 0 mm | - | 0 W/m² | - |
| 1777320908 | 6.67° C | 64% | 1027 hPa | 0 mm | - | 0 W/m² | - |
| 1777318808 | 7.22° C | 63% | 1027 hPa | 0 mm | - | 0 W/m² | - |
| 1777315808 | 8.33° C | 54% | 1026.8 hPa | 0 mm | - | 0 W/m² | - |
| 1777314612 | 8.33° C | 52% | 1026.5 hPa | 0 mm | - | 0 W/m² | - |
| 1777314308 | 8.89° C | 52% | 1026.5 hPa | 0 mm | - | 0 W/m² | - |
| 1777311608 | 8.89° C | 49% | 1026.6 hPa | 0 mm | - | 0 W/m² | - |
| 1777311011 | 9.44° C | 49% | 1026.5 hPa | 0 mm | - | 0 W/m² | - |
| 1777310107 | 9.44° C | 49% | 1026.5 hPa | 0 mm | - | 0 W/m² | - |
| 1777306808 | 10° C | 49% | 1026.3 hPa | 0 mm | - | 0 W/m² | - |
| 1777303507 | 10° C | 47% | 1025.8 hPa | 0 mm | - | 0 W/m² | - |
| 1777300507 | 10° C | 46% | 1025.8 hPa | 0 mm | - | 0 W/m² | - |
| 1777295107 | 10.56° C | 50% | 1026 hPa | 0 mm | - | 0 W/m² | - |
| 1777286107 | 9.44° C | 55% | 1026 hPa | 0 mm | - | 0 W/m² | - |
* Rain latest hour (hover to see other rain measurements)
** Current wind speed in m/s (hover to see current wind gust speed)